Time;durP1;ratioP1;P1;durP2;ratioP2;P2;SDS_P1;SDS_P2;PMS_P1;PMS_P2;Temp;Humidity;BMP_temperature;BMP_pressure;BME280_temperature;BME280_humidity;BME280_pressure;Samples;Min_cycle;Max_cycle;Signal;HPM_P1;HPM_P2
2022/01/11 00:01:59;;;;;;;2.20;1.73;;;2.40;57.30;;;;;;6289576;28;20184;-62
2022/01/11 00:05:00;;;;;;;1.97;1.40;;;2.30;58.50;;;;;;6289192;28;20203;-62
2022/01/11 00:08:01;;;;;;;2.17;1.53;;;2.30;57.30;;;;;;6305662;28;20245;-62
2022/01/11 00:11:06;;;;;;;1.70;1.33;;;2.40;57.10;;;;;;6306328;28;20190;-63
2022/01/11 00:14:07;;;;;;;2.17;1.37;;;2.60;55.60;;;;;;6345932;28;20241;-62
2022/01/11 00:17:08;;;;;;;1.77;1.30;;;2.70;55.70;;;;;;6292958;28;20192;-62
2022/01/11 00:20:12;;;;;;;1.87;1.63;;;2.70;55.40;;;;;;6325670;28;20239;-63
2022/01/11 00:26:15;;;;;;;1.73;1.37;;;2.60;55.90;;;;;;6293485;28;20303;-62
2022/01/11 00:29:16;;;;;;;1.97;1.33;;;2.60;56.00;;;;;;6333679;28;20188;-63
2022/01/11 00:32:27;;;;;;;2.10;1.57;;;2.60;55.90;;;;;;6335505;28;20218;-63
2022/01/11 00:35:39;;;;;;;1.63;1.50;;;2.50;56.30;;;;;;6325401;28;20197;-63
2022/01/11 00:38:41;;;;;;;2.30;1.50;;;2.50;56.00;;;;;;6343848;28;20226;-63
2022/01/11 00:41:44;;;;;;;2.27;1.30;;;2.30;56.60;;;;;;6344368;28;20208;-63
2022/01/11 00:44:45;;;;;;;1.70;1.40;;;2.30;56.60;;;;;;6309727;28;20203;-63
2022/01/11 00:47:45;;;;;;;2.00;1.57;;;2.30;55.90;;;;;;6343810;28;20658;-63
2022/01/11 00:50:47;;;;;;;2.10;1.53;;;2.50;55.00;;;;;;6295700;28;20237;-63
2022/01/11 00:53:48;;;;;;;1.50;1.40;;;2.50;55.40;;;;;;6326591;28;20191;-63
2022/01/11 00:56:49;;;;;;;2.20;1.30;;;2.50;55.50;;;;;;6325798;28;20192;-63
2022/01/11 00:59:50;;;;;;;1.80;1.03;;;2.40;55.00;;;;;;6299704;28;20221;-63
2022/01/11 01:02:51;;;;;;;1.80;1.70;;;2.40;55.70;;;;;;6309082;28;20199;-63
2022/01/11 01:05:53;;;;;;;1.80;1.20;;;2.30;56.30;;;;;;6303591;28;20215;-62
2022/01/11 01:08:54;;;;;;;2.37;1.40;;;2.40;55.00;;;;;;6335140;28;20194;-63
2022/01/11 01:11:56;;;;;;;1.33;1.20;;;2.40;55.30;;;;;;6334521;28;20295;-63
2022/01/11 01:14:57;;;;;;;1.43;1.20;;;2.30;55.60;;;;;;6326283;28;20180;-61
2022/01/11 01:17:59;;;;;;;1.60;1.50;;;2.30;55.70;;;;;;6333293;28;20194;-62
2022/01/11 01:21:00;;;;;;;1.70;1.50;;;2.30;55.60;;;;;;6333242;28;20235;-63
2022/01/11 01:24:01;;;;;;;2.00;1.50;;;2.20;55.90;;;;;;6333518;28;20195;-62
2022/01/11 01:27:02;;;;;;;1.90;1.57;;;2.30;55.60;;;;;;6333632;28;20207;-63
2022/01/11 01:30:05;;;;;;;2.40;1.53;;;2.20;55.60;;;;;;6349445;28;20236;-62
2022/01/11 01:33:07;;;;;;;2.40;1.67;;;2.30;55.30;;;;;;6308970;28;20173;-62
2022/01/11 01:36:11;;;;;;;2.03;1.70;;;2.40;54.00;;;;;;6308606;28;20188;-62
2022/01/11 01:39:12;;;;;;;2.50;1.70;;;2.40;54.30;;;;;;6319571;28;20282;-63
2022/01/11 01:42:13;;;;;;;2.60;1.80;;;2.60;53.20;;;;;;6300418;28;20187;-62
2022/01/11 01:45:14;;;;;;;1.80;1.60;;;2.70;52.70;;;;;;6350350;28;20214;-62
2022/01/11 01:48:16;;;;;;;1.47;1.37;;;2.70;53.10;;;;;;6350393;28;20618;-62
2022/01/11 01:51:17;;;;;;;1.93;1.73;;;2.70;52.90;;;;;;6317089;28;20172;-62
2022/01/11 01:54:18;;;;;;;1.67;1.57;;;2.50;53.50;;;;;;6293427;28;20237;-62
2022/01/11 01:57:20;;;;;;;2.00;1.60;;;2.30;54.00;;;;;;6325008;28;20623;-62
2022/01/11 02:00:22;;;;;;;1.87;1.53;;;2.20;54.80;;;;;;6344797;28;20195;-62
2022/01/11 02:03:26;;;;;;;1.73;1.40;;;2.10;54.60;;;;;;6324880;28;20200;-61
2022/01/11 02:06:27;;;;;;;1.90;1.50;;;1.90;55.50;;;;;;6325295;28;20223;-61
2022/01/11 02:09:28;;;;;;;2.00;1.80;;;2.00;55.00;;;;;;6291474;28;20180;-62
2022/01/11 02:12:29;;;;;;;1.80;1.40;;;2.20;54.60;;;;;;6307496;28;20198;-63
2022/01/11 02:15:31;;;;;;;3.13;1.60;;;2.00;55.60;;;;;;6318223;28;20207;-62
2022/01/11 02:18:32;;;;;;;1.70;1.60;;;1.80;55.90;;;;;;6307569;28;20214;-62
2022/01/11 02:21:44;;;;;;;2.30;1.57;;;1.80;56.20;;;;;;6326358;28;20264;-62
2022/01/11 02:24:45;;;;;;;1.47;1.37;;;1.90;55.50;;;;;;6323904;28;20192;-63
2022/01/11 02:27:47;;;;;;;1.87;1.60;;;1.90;55.70;;;;;;6324066;28;20212;-62
2022/01/11 02:30:50;;;;;;;2.40;1.70;;;1.80;55.70;;;;;;6315414;28;20211;-62
2022/01/11 02:33:56;;;;;;;2.93;1.90;;;1.80;56.10;;;;;;6349594;28;20222;-62
2022/01/11 02:37:13;;;;;;;1.27;1.17;;;1.80;55.50;;;;;;6317975;28;20172;-62
2022/01/11 02:40:20;;;;;;;1.80;1.30;;;1.90;55.10;;;;;;6331234;28;20193;-62
2022/01/11 02:43:21;;;;;;;1.90;1.27;;;1.80;55.90;;;;;;6340274;28;20183;-62
2022/01/11 02:46:23;;;;;;;1.63;1.53;;;1.80;56.10;;;;;;6290582;28;20277;-62
2022/01/11 02:49:27;;;;;;;2.27;1.70;;;1.70;56.10;;;;;;6300932;28;20222;-62
2022/01/11 02:52:36;;;;;;;2.27;1.67;;;1.70;56.20;;;;;;6350372;27;20233;-62
2022/01/11 02:55:40;;;;;;;1.70;1.40;;;1.80;55.80;;;;;;6345540;28;20207;-62
2022/01/11 02:58:42;;;;;;;2.83;1.73;;;1.80;55.90;;;;;;6315206;28;20731;-62
2022/01/11 03:01:43;;;;;;;1.77;1.53;;;1.90;55.70;;;;;;6315378;28;20187;-63
2022/01/11 03:04:45;;;;;;;1.90;1.60;;;1.90;55.50;;;;;;6314502;28;20281;-63
2022/01/11 03:07:47;;;;;;;2.07;1.40;;;2.00;55.40;;;;;;6347088;28;20218;-63
2022/01/11 03:10:51;;;;;;;2.33;1.90;;;2.00;55.50;;;;;;6341068;28;20169;-63
2022/01/11 03:13:52;;;;;;;1.83;1.70;;;1.90;55.80;;;;;;6308700;28;20202;-62
2022/01/11 03:16:53;;;;;;;2.30;1.60;;;1.80;56.50;;;;;;6326702;28;20207;-61
2022/01/11 03:19:54;;;;;;;2.33;1.70;;;1.80;56.40;;;;;;6348786;28;20570;-63
2022/01/11 03:22:55;;;;;;;2.63;1.80;;;1.80;56.00;;;;;;6330877;28;20260;-63
2022/01/11 03:25:56;;;;;;;2.17;1.63;;;1.90;55.30;;;;;;6314470;28;20207;-62
2022/01/11 03:28:59;;;;;;;1.70;1.60;;;1.90;55.80;;;;;;6260198;28;20185;-62
2022/01/11 03:32:00;;;;;;;1.90;1.40;;;1.80;56.30;;;;;;6289424;28;20220;-62
2022/01/11 03:35:02;;;;;;;3.03;2.07;;;1.80;56.40;;;;;;6322907;28;20191;-63
2022/01/11 03:38:04;;;;;;;2.33;1.70;;;1.80;56.70;;;;;;6306814;28;20185;-64
2022/01/11 03:41:07;;;;;;;3.10;1.67;;;1.60;57.30;;;;;;6314901;28;20168;-63
2022/01/11 03:44:08;;;;;;;2.23;1.50;;;1.50;57.60;;;;;;6346729;28;20192;-62
2022/01/11 03:47:09;;;;;;;3.37;1.70;;;1.40;57.90;;;;;;6340059;28;20218;-62
2022/01/11 03:50:11;;;;;;;2.03;1.50;;;1.40;58.00;;;;;;6305970;28;20204;-63
2022/01/11 03:53:15;;;;;;;2.17;1.67;;;1.50;58.00;;;;;;6289719;28;20181;-62
2022/01/11 03:56:26;;;;;;;2.73;2.07;;;1.40;58.50;;;;;;6335413;28;20603;-63
2022/01/11 03:59:46;;;;;;;2.47;1.63;;;1.40;58.40;;;;;;6322050;28;20263;-62
2022/01/11 04:02:47;;;;;;;2.87;2.00;;;1.40;58.40;;;;;;6311374;28;20216;-62
2022/01/11 04:05:52;;;;;;;2.00;1.80;;;1.60;57.40;;;;;;6287152;28;20219;-62
2022/01/11 04:08:54;;;;;;;1.93;1.50;;;1.80;56.70;;;;;;6300428;28;20281;-62
2022/01/11 04:11:55;;;;;;;1.60;1.50;;;1.90;56.50;;;;;;6310559;28;20210;-62
2022/01/11 04:14:56;;;;;;;2.10;1.63;;;1.80;56.80;;;;;;6336094;28;20198;-63
2022/01/11 04:17:58;;;;;;;2.00;1.80;;;1.80;56.90;;;;;;6331204;28;20204;-63
2022/01/11 04:20:59;;;;;;;2.70;1.93;;;1.80;57.20;;;;;;6301368;28;20226;-62
2022/01/11 04:24:02;;;;;;;2.20;1.70;;;1.80;57.00;;;;;;6318595;28;20203;-62
2022/01/11 04:27:04;;;;;;;2.33;1.83;;;1.70;57.60;;;;;;6294155;28;20215;-63
2022/01/11 04:30:06;;;;;;;2.47;1.63;;;1.70;57.70;;;;;;6299696;28;20188;-62
2022/01/11 04:33:07;;;;;;;2.30;1.67;;;1.60;57.70;;;;;;6310695;28;20185;-63
2022/01/11 04:36:09;;;;;;;2.80;2.23;;;1.80;57.30;;;;;;6319366;28;20199;-62
2022/01/11 04:39:13;;;;;;;2.20;1.77;;;2.00;56.50;;;;;;6286461;28;20193;-62
2022/01/11 04:42:14;;;;;;;1.87;1.40;;;2.00;56.40;;;;;;6327307;28;20189;-62
2022/01/11 04:45:16;;;;;;;2.43;1.50;;;1.90;57.30;;;;;;6310182;28;20212;-61
2022/01/11 04:48:18;;;;;;;3.77;1.77;;;1.80;58.00;;;;;;6310699;28;20184;-62
2022/01/11 04:51:24;;;;;;;2.50;2.00;;;1.70;58.30;;;;;;6312123;28;20195;-61
2022/01/11 04:54:26;;;;;;;2.77;1.70;;;1.60;58.70;;;;;;6318088;28;20195;-62
2022/01/11 04:57:28;;;;;;;3.13;2.27;;;1.60;59.10;;;;;;6340978;28;20211;-61
2022/01/11 05:00:29;;;;;;;5.47;2.33;;;1.90;57.90;;;;;;6300017;28;20218;-61
2022/01/11 05:03:30;;;;;;;3.07;1.77;;;1.90;57.60;;;;;;6351146;28;20190;-61
2022/01/11 05:06:36;;;;;;;1.93;1.70;;;1.90;57.70;;;;;;6326630;28;20215;-61
2022/01/11 05:09:37;;;;;;;2.47;1.80;;;2.20;56.70;;;;;;6325065;28;20219;-60
2022/01/11 05:12:39;;;;;;;6.73;2.10;;;2.50;55.50;;;;;;6309482;28;20189;-61
2022/01/11 05:15:41;;;;;;;2.80;1.70;;;2.60;54.90;;;;;;6318994;28;20269;-62
2022/01/11 05:18:43;;;;;;;2.23;1.80;;;2.70;55.00;;;;;;6328236;28;20188;-59
2022/01/11 05:21:44;;;;;;;3.30;1.80;;;2.70;55.10;;;;;;6334649;28;20247;-59
2022/01/11 05:24:45;;;;;;;3.03;1.83;;;2.60;55.40;;;;;;6324931;28;20201;-59
2022/01/11 05:27:46;;;;;;;2.67;2.00;;;2.70;55.10;;;;;;6330533;28;20311;-58
2022/01/11 05:30:47;;;;;;;2.60;1.57;;;2.60;55.60;;;;;;6335126;28;20195;-59
2022/01/11 05:33:48;;;;;;;2.70;1.77;;;2.70;55.20;;;;;;6294072;28;20215;-59
2022/01/11 05:36:49;;;;;;;2.30;2.10;;;2.80;54.60;;;;;;6324710;28;20194;-59
2022/01/11 05:39:53;;;;;;;3.83;2.50;;;2.80;55.00;;;;;;6308114;28;20195;-59
2022/01/11 05:42:54;;;;;;;4.70;2.53;;;2.60;55.00;;;;;;6325558;28;20245;-59
2022/01/11 05:45:57;;;;;;;2.63;2.43;;;2.60;55.60;;;;;;6279252;28;20265;-58
2022/01/11 05:48:58;;;;;;;2.53;2.27;;;2.60;55.60;;;;;;6282638;28;20222;-58
2022/01/11 05:51:59;;;;;;;3.00;2.43;;;2.50;55.90;;;;;;6343503;28;20190;-58
2022/01/11 05:55:00;;;;;;;2.13;1.77;;;2.70;56.00;;;;;;6326326;28;20188;-56
2022/01/11 05:58:01;;;;;;;3.10;2.23;;;2.80;55.40;;;;;;6317230;28;20196;-58
2022/01/11 06:01:02;;;;;;;2.40;1.67;;;2.80;55.20;;;;;;6331070;28;20200;-58
2022/01/11 06:04:04;;;;;;;2.00;1.80;;;2.90;54.80;;;;;;6324468;28;20204;-58
2022/01/11 06:07:05;;;;;;;2.83;2.13;;;2.80;55.40;;;;;;6284223;28;20388;-59
2022/01/11 06:10:07;;;;;;;2.20;1.77;;;2.70;55.70;;;;;;6313742;28;20184;-58
2022/01/11 06:13:08;;;;;;;2.87;1.70;;;2.60;55.70;;;;;;6285410;28;20181;-59
2022/01/11 06:16:09;;;;;;;2.20;2.00;;;2.50;56.30;;;;;;6320779;28;20222;-58
2022/01/11 06:19:11;;;;;;;3.33;2.17;;;2.40;56.40;;;;;;6277620;28;20635;-59
2022/01/11 06:22:20;;;;;;;2.60;1.90;;;2.40;56.50;;;;;;6327497;27;20289;-59
2022/01/11 06:25:21;;;;;;;4.80;1.97;;;2.50;56.00;;;;;;6334648;28;20196;-59
2022/01/11 06:28:22;;;;;;;2.57;1.90;;;2.60;56.10;;;;;;6319243;28;20184;-59
2022/01/11 06:31:24;;;;;;;2.07;1.73;;;2.50;55.70;;;;;;6331596;28;20191;-59
2022/01/11 06:34:25;;;;;;;2.47;1.90;;;2.50;56.30;;;;;;6298488;28;20181;-58
2022/01/11 06:37:26;;;;;;;2.30;1.87;;;2.60;55.60;;;;;;6282073;28;20196;-58
2022/01/11 06:40:27;;;;;;;2.00;1.50;;;2.60;55.40;;;;;;6313228;28;20242;-59
2022/01/11 06:43:29;;;;;;;2.33;1.63;;;2.60;55.80;;;;;;6321861;28;20284;-58
2022/01/11 06:46:30;;;;;;;2.60;2.07;;;2.40;56.50;;;;;;6289588;28;20212;-59
2022/01/11 06:49:33;;;;;;;3.03;2.00;;;2.40;56.10;;;;;;6306482;28;20192;-60
2022/01/11 06:52:35;;;;;;;2.20;1.70;;;2.40;56.00;;;;;;6324225;28;20191;-60
2022/01/11 06:55:35;;;;;;;1.90;1.50;;;2.30;56.30;;;;;;6315551;28;20196;-59
2022/01/11 06:58:38;;;;;;;2.00;1.80;;;2.30;56.80;;;;;;6323590;28;20195;-57
2022/01/11 07:01:39;;;;;;;2.13;1.80;;;2.30;56.10;;;;;;6347908;28;20196;-57
2022/01/11 07:04:48;;;;;;;2.87;1.90;;;2.40;56.10;;;;;;6329502;28;20223;-59
2022/01/11 07:07:51;;;;;;;3.53;2.33;;;2.40;56.00;;;;;;6330346;28;20223;-59
2022/01/11 07:10:52;;;;;;;2.53;2.07;;;2.60;55.50;;;;;;6287269;28;20192;-58
2022/01/11 07:13:54;;;;;;;3.43;1.90;;;2.50;55.70;;;;;;6322181;28;20225;-58
2022/01/11 07:16:56;;;;;;;1.60;1.50;;;2.40;56.00;;;;;;6346656;28;20196;-58
2022/01/11 07:19:57;;;;;;;2.20;1.87;;;2.30;56.90;;;;;;6329138;28;20262;-58
2022/01/11 07:22:58;;;;;;;2.07;1.63;;;2.20;57.10;;;;;;6330176;28;20195;-59
2022/01/11 07:25:59;;;;;;;3.23;1.90;;;2.20;56.80;;;;;;6329241;28;20207;-58
2022/01/11 07:29:03;;;;;;;2.17;1.93;;;2.20;57.00;;;;;;6334760;28;20283;-57
2022/01/11 07:32:05;;;;;;;4.00;2.83;;;2.20;56.70;;;;;;6331443;28;20198;-59
2022/01/11 07:35:07;;;;;;;2.43;1.77;;;2.40;55.90;;;;;;6342441;28;20238;-58
2022/01/11 07:38:08;;;;;;;2.90;1.90;;;2.50;55.20;;;;;;6330167;28;20179;-59
2022/01/11 07:41:09;;;;;;;2.37;1.83;;;2.80;54.00;;;;;;6338579;28;20183;-59
2022/01/11 07:44:28;;;;;;;3.40;2.10;;;2.90;53.80;;;;;;6335791;28;20201;-58
2022/01/11 07:47:30;;;;;;;3.80;2.10;;;2.90;53.50;;;;;;6312876;28;20223;-58
2022/01/11 07:50:31;;;;;;;2.07;1.50;;;2.80;53.90;;;;;;6295412;28;20180;-58
2022/01/11 07:53:32;;;;;;;2.60;1.70;;;2.80;53.60;;;;;;6312762;28;20662;-58
2022/01/11 07:56:39;;;;;;;2.13;1.57;;;2.90;52.80;;;;;;6297036;28;20283;-58
2022/01/11 07:59:40;;;;;;;4.40;2.20;;;2.90;53.10;;;;;;6319979;28;20288;-58
2022/01/11 08:02:42;;;;;;;3.10;1.93;;;2.90;53.40;;;;;;6304263;28;20203;-58
2022/01/11 08:05:50;;;;;;;2.90;2.10;;;2.90;53.20;;;;;;6338079;28;20219;-58
2022/01/11 08:08:51;;;;;;;2.07;1.87;;;2.80;53.40;;;;;;6337912;28;20184;-59
2022/01/11 08:11:55;;;;;;;1.70;1.47;;;2.90;53.20;;;;;;6338213;28;20270;-58
2022/01/11 08:14:56;;;;;;;2.23;1.87;;;3.00;52.80;;;;;;6304289;28;20658;-58
2022/01/11 08:17:57;;;;;;;3.23;1.80;;;3.00;52.80;;;;;;6337737;28;20187;-58
2022/01/11 08:20:59;;;;;;;4.33;2.30;;;3.10;52.30;;;;;;6308574;28;20241;-58
2022/01/11 08:24:01;;;;;;;2.30;2.10;;;3.10;51.80;;;;;;6262900;28;20194;-59
2022/01/11 08:27:03;;;;;;;2.53;1.63;;;3.30;51.50;;;;;;6260180;28;20216;-59
2022/01/11 08:30:05;;;;;;;3.40;1.80;;;3.30;51.00;;;;;;6287610;28;20181;-58
2022/01/11 08:33:09;;;;;;;1.83;1.60;;;3.40;51.00;;;;;;6281853;28;20191;-59
2022/01/11 08:36:10;;;;;;;1.97;1.77;;;3.50;49.70;;;;;;6304461;28;20216;-58
2022/01/11 08:39:12;;;;;;;2.57;1.90;;;3.50;50.50;;;;;;6273193;28;20198;-59
2022/01/11 08:42:14;;;;;;;1.80;1.57;;;3.50;50.30;;;;;;6243113;28;20196;-58
2022/01/11 08:45:16;;;;;;;2.80;1.90;;;3.60;49.80;;;;;;6252772;28;20193;-58
2022/01/11 08:48:19;;;;;;;3.93;1.60;;;3.60;50.30;;;;;;6281548;28;20288;-57
2022/01/11 08:51:28;;;;;;;1.30;1.20;;;3.70;49.50;;;;;;6284059;28;20186;-58
2022/01/11 08:54:29;;;;;;;2.70;1.67;;;3.70;49.60;;;;;;6282087;28;20186;-58
2022/01/11 08:57:34;;;;;;;2.37;1.60;;;3.70;48.90;;;;;;6283638;28;20242;-58
2022/01/11 09:00:35;;;;;;;2.90;1.50;;;3.70;49.20;;;;;;6283428;28;20177;-58
2022/01/11 09:03:42;;;;;;;2.90;1.50;;;3.90;48.40;;;;;;6274377;28;20190;-59
2022/01/11 09:06:44;;;;;;;1.60;1.47;;;3.90;47.60;;;;;;6280114;28;20223;-58
2022/01/11 09:09:47;;;;;;;3.23;1.83;;;3.90;47.70;;;;;;6281883;28;20201;-58
2022/01/11 09:12:50;;;;;;;2.27;1.67;;;4.10;47.20;;;;;;6266831;28;20195;-58
2022/01/11 09:15:51;;;;;;;1.63;1.40;;;4.10;47.70;;;;;;6269172;28;20198;-57
2022/01/11 09:18:53;;;;;;;1.83;1.30;;;4.20;46.60;;;;;;6257964;28;20272;-56
2022/01/11 09:21:54;;;;;;;2.53;1.77;;;4.30;46.20;;;;;;6291244;28;20232;-58
2022/01/11 09:24:56;;;;;;;1.87;1.50;;;4.40;45.50;;;;;;6333485;28;20272;-58
2022/01/11 09:28:01;;;;;;;2.97;1.57;;;4.30;45.60;;;;;;6332878;28;20224;-58
2022/01/11 09:31:02;;;;;;;2.43;1.20;;;4.30;44.60;;;;;;6332187;28;20189;-58
2022/01/11 09:34:04;;;;;;;1.80;1.20;;;4.40;43.70;;;;;;6338883;28;20184;-56
2022/01/11 09:37:09;;;;;;;2.77;1.80;;;4.40;43.30;;;;;;6269214;28;20275;-57
2022/01/11 09:40:11;;;;;;;1.97;1.20;;;4.50;43.00;;;;;;6281432;28;20280;-58
2022/01/11 09:43:14;;;;;;;1.80;1.30;;;4.50;43.00;;;;;;6299040;28;20648;-58
2022/01/11 09:46:18;;;;;;;2.60;1.50;;;4.40;44.00;;;;;;6304412;28;20244;-58
2022/01/11 09:49:20;;;;;;;1.63;1.20;;;4.40;43.60;;;;;;6298674;28;20185;-58
2022/01/11 09:52:27;;;;;;;1.10;1.00;;;4.50;43.60;;;;;;6338509;27;20200;-58
2022/01/11 09:55:29;;;;;;;1.67;1.30;;;4.60;43.70;;;;;;6337158;28;20196;-58
2022/01/11 09:58:30;;;;;;;1.40;1.30;;;4.80;43.20;;;;;;6323108;28;20198;-58
2022/01/11 10:01:32;;;;;;;1.77;1.40;;;4.90;42.00;;;;;;6297598;28;20192;-58
2022/01/11 10:05:05;;;;;;;2.30;1.30;;;5.00;41.70;;;;;;6298726;28;20239;-58
2022/01/11 10:08:28;;;;;;;2.23;1.43;;;5.00;41.90;;;;;;6315401;28;20216;-58
2022/01/11 10:11:34;;;;;;;2.53;1.57;;;5.00;41.90;;;;;;6340184;28;20201;-58
2022/01/11 10:14:37;;;;;;;1.97;1.50;;;5.00;42.30;;;;;;6339723;28;20223;-58
2022/01/11 10:17:45;;;;;;;1.80;1.60;;;5.10;42.20;;;;;;6340849;27;20219;-57
2022/01/11 10:20:50;;;;;;;2.33;1.53;;;5.00;41.60;;;;;;6328395;28;20237;-58
2022/01/11 10:23:56;;;;;;;3.20;1.27;;;5.10;42.20;;;;;;6281924;28;20193;-58
2022/01/11 10:26:58;;;;;;;2.27;1.50;;;5.10;43.10;;;;;;6281111;28;20209;-58
2022/01/11 10:30:16;;;;;;;2.20;1.30;;;5.20;43.30;;;;;;6297655;28;20257;-58
2022/01/11 10:33:24;;;;;;;2.10;1.40;;;5.20;41.50;;;;;;6281863;28;20186;-58
2022/01/11 10:36:46;;;;;;;2.30;1.27;;;5.30;40.80;;;;;;6248269;28;20239;-58
2022/01/11 10:39:50;;;;;;;2.50;1.50;;;5.30;41.20;;;;;;6280977;28;20338;-58
2022/01/11 10:42:56;;;;;;;2.03;1.40;;;5.30;40.90;;;;;;6273252;28;20196;-58
2022/01/11 10:46:02;;;;;;;1.60;1.30;;;5.40;39.20;;;;;;6256039;28;20213;-58
2022/01/11 10:49:04;;;;;;;1.10;0.97;;;5.30;38.90;;;;;;6240350;28;20190;-58
2022/01/11 10:52:37;;;;;;;1.70;1.53;;;5.30;39.50;;;;;;6239050;28;20200;-58
2022/01/11 10:55:48;;;;;;;1.43;1.30;;;5.50;37.60;;;;;;6247014;28;20205;-57
2022/01/11 10:59:10;;;;;;;1.60;1.03;;;5.60;37.20;;;;;;6280049;28;20196;-57
2022/01/11 11:02:25;;;;;;;2.20;1.40;;;5.70;37.50;;;;;;6280564;28;20214;-57
2022/01/11 11:05:37;;;;;;;1.47;0.90;;;5.80;38.20;;;;;;6263023;28;20225;-57
2022/01/11 11:08:47;;;;;;;1.83;1.20;;;5.70;36.80;;;;;;6281591;28;20186;-58
2022/01/11 11:12:23;;;;;;;1.20;1.07;;;5.80;37.10;;;;;;6262989;28;20194;-58
2022/01/11 11:15:49;;;;;;;1.47;1.27;;;5.80;37.40;;;;;;6269385;28;20211;-57
2022/01/11 11:18:57;;;;;;;1.67;1.40;;;5.90;37.30;;;;;;6255246;28;20212;-58
2022/01/11 11:22:05;;;;;;;1.40;1.13;;;5.90;37.90;;;;;;6268716;28;20230;-58
2022/01/11 11:25:07;;;;;;;1.17;1.07;;;6.00;35.60;;;;;;6288435;28;20217;-58
2022/01/11 11:28:08;;;;;;;3.13;1.17;;;6.00;34.70;;;;;;6288144;28;20228;-58
2022/01/11 11:31:09;;;;;;;1.17;1.00;;;6.10;35.90;;;;;;6295764;28;20197;-58
2022/01/11 11:34:12;;;;;;;1.30;0.90;;;6.20;35.30;;;;;;6296834;28;20193;-58
2022/01/11 11:37:14;;;;;;;2.37;1.30;;;6.20;34.60;;;;;;6268904;28;20295;-58
2022/01/11 11:40:19;;;;;;;1.83;1.23;;;6.30;34.10;;;;;;6288262;28;20193;-58
2022/01/11 11:43:21;;;;;;;2.00;1.50;;;6.30;35.10;;;;;;6298912;28;20193;-58
2022/01/11 11:46:42;;;;;;;1.43;1.30;;;6.30;35.80;;;;;;6276549;28;20656;-57
2022/01/11 11:49:54;;;;;;;1.30;1.20;;;6.30;36.40;;;;;;6296529;28;20192;-58
2022/01/11 11:52:55;;;;;;;1.70;1.03;;;6.40;34.10;;;;;;6287469;28;20308;-58
2022/01/11 11:56:19;;;;;;;1.10;1.00;;;6.50;34.60;;;;;;6271358;28;20605;-57
2022/01/11 11:59:24;;;;;;;1.43;1.17;;;6.60;33.60;;;;;;6288530;28;20239;-59
2022/01/11 12:02:42;;;;;;;1.87;1.20;;;6.70;34.30;;;;;;6287757;28;20193;-59
2022/01/11 12:05:46;;;;;;;1.43;1.17;;;6.80;32.90;;;;;;6312035;28;20213;-58
2022/01/11 12:09:05;;;;;;;2.87;1.50;;;6.80;33.00;;;;;;6263319;28;20193;-58
2022/01/11 12:12:09;;;;;;;1.37;0.93;;;6.80;32.80;;;;;;6277732;28;20230;-58
2022/01/11 12:15:35;;;;;;;1.67;1.07;;;6.80;31.20;;;;;;6289792;28;20241;-59
2022/01/11 12:18:43;;;;;;;1.20;1.10;;;6.80;31.60;;;;;;6281145;28;20202;-54
2022/01/11 12:21:53;;;;;;;1.30;0.90;;;6.90;30.60;;;;;;6311869;28;20230;-57
2022/01/11 12:24:57;;;;;;;2.03;1.10;;;6.90;30.20;;;;;;6277096;28;20187;-57
2022/01/11 12:28:03;;;;;;;1.33;1.13;;;6.90;29.50;;;;;;6283216;28;20220;-58
2022/01/11 12:31:28;;;;;;;1.83;1.10;;;7.00;30.40;;;;;;6292598;28;20185;-58
2022/01/11 12:34:47;;;;;;;1.40;0.90;;;7.20;29.70;;;;;;6284947;28;20199;-58
2022/01/11 12:37:49;;;;;;;1.63;1.13;;;7.30;29.90;;;;;;6270863;28;20204;-58
2022/01/11 12:40:49;;;;;;;2.47;1.00;;;7.30;30.00;;;;;;6260754;28;20300;-59
2022/01/11 12:47:42;;;;;;;1.20;0.93;;;7.50;30.20;;;;;;6279382;28;20233;-59
2022/01/11 12:51:00;;;;;;;1.47;1.03;;;7.60;29.30;;;;;;6271005;28;20242;-58
2022/01/11 12:54:16;;;;;;;1.50;1.00;;;7.80;32.70;;;;;;6284874;28;20212;-58
2022/01/11 12:57:23;;;;;;;1.10;0.80;;;7.70;29.20;;;;;;6285012;28;20189;-57
2022/01/11 13:00:24;;;;;;;1.87;1.40;;;7.60;29.00;;;;;;6272616;28;20550;-58
2022/01/11 13:03:24;;;;;;;2.60;1.30;;;7.70;30.30;;;;;;6260054;28;20208;-58
2022/01/11 13:06:32;;;;;;;2.80;1.30;;;7.80;29.60;;;;;;6277970;28;20232;-57
2022/01/11 13:09:34;;;;;;;1.53;1.23;;;7.90;29.00;;;;;;6284322;28;20193;-59
2022/01/11 13:12:38;;;;;;;1.47;1.10;;;7.80;28.30;;;;;;6284517;28;20194;-57
2022/01/11 13:15:45;;;;;;;1.57;1.10;;;7.80;29.00;;;;;;6263457;28;20235;-59
2022/01/11 13:18:46;;;;;;;1.43;1.20;;;8.10;29.40;;;;;;6275658;28;20248;-58
2022/01/11 13:21:46;;;;;;;1.77;1.50;;;8.30;29.30;;;;;;6279113;28;20236;-59
2022/01/11 13:24:49;;;;;;;2.90;1.30;;;8.40;28.90;;;;;;6301307;28;20234;-58
2022/01/11 13:27:53;;;;;;;1.67;1.30;;;8.40;28.40;;;;;;6321739;28;20287;-58
2022/01/11 13:30:54;;;;;;;1.83;1.60;;;8.30;28.20;;;;;;6326093;28;20177;-56
2022/01/11 13:34:07;;;;;;;1.40;1.30;;;8.40;28.20;;;;;;6275421;28;20198;-58
2022/01/11 13:37:08;;;;;;;1.73;1.23;;;8.70;28.10;;;;;;6308812;28;20185;-57
2022/01/11 13:40:11;;;;;;;1.67;1.30;;;9.00;27.80;;;;;;6274346;28;20203;-59
2022/01/11 13:43:13;;;;;;;1.97;1.30;;;9.70;27.00;;;;;;6290533;28;20192;-58
2022/01/11 13:46:24;;;;;;;1.63;1.30;;;11.00;26.50;;;;;;6307064;28;20265;-58
2022/01/11 13:49:30;;;;;;;1.53;1.37;;;13.00;24.40;;;;;;6307005;28;20188;-58
2022/01/11 13:52:31;;;;;;;4.17;1.20;;;14.10;22.80;;;;;;6307025;28;20192;-58
2022/01/11 13:55:32;;;;;;;1.50;1.40;;;14.70;21.70;;;;;;6263893;28;20188;-59
2022/01/11 13:58:38;;;;;;;1.77;1.50;;;14.10;21.50;;;;;;6298413;28;20189;-58
2022/01/11 14:01:39;;;;;;;2.03;1.80;;;13.80;22.10;;;;;;6315518;28;20186;-58
2022/01/11 14:04:50;;;;;;;1.43;1.23;;;12.80;23.20;;;;;;6314837;28;20185;-58
2022/01/11 14:07:58;;;;;;;2.90;1.67;;;13.00;23.40;;;;;;6315173;28;20213;-58
2022/01/11 14:11:07;;;;;;;2.07;1.40;;;13.10;23.10;;;;;;6323658;28;20193;-58
2022/01/11 14:14:08;;;;;;;1.63;1.33;;;12.30;24.00;;;;;;6340327;28;20234;-58
2022/01/11 14:17:14;;;;;;;3.07;1.57;;;12.30;23.70;;;;;;6305512;28;20193;-58
2022/01/11 14:20:27;;;;;;;1.93;1.43;;;12.40;24.20;;;;;;6287897;28;20323;-58
2022/01/11 14:23:28;;;;;;;2.60;1.73;;;12.50;23.80;;;;;;6348630;28;20236;-58
2022/01/11 14:26:34;;;;;;;2.23;1.50;;;12.60;23.80;;;;;;6330794;28;20211;-58
2022/01/11 14:29:35;;;;;;;2.17;1.77;;;12.50;23.30;;;;;;6297972;28;20255;-58
2022/01/11 14:32:50;;;;;;;2.67;1.60;;;12.40;23.90;;;;;;6296966;28;20267;-58
2022/01/11 14:35:59;;;;;;;1.70;1.33;;;12.70;24.00;;;;;;6347489;28;20249;-58
2022/01/11 14:39:12;;;;;;;3.40;1.77;;;13.00;23.10;;;;;;6346391;28;20199;-58
2022/01/11 14:42:20;;;;;;;2.10;1.67;;;13.60;22.20;;;;;;6347925;28;20381;-59
2022/01/11 14:45:23;;;;;;;1.87;1.50;;;13.50;22.30;;;;;;6348068;28;20245;-57
2022/01/11 14:48:33;;;;;;;1.67;1.57;;;13.40;22.40;;;;;;6330058;28;20261;-58
2022/01/11 14:51:44;;;;;;;2.43;1.70;;;12.70;23.20;;;;;;6348059;28;20223;-58
2022/01/11 14:54:51;;;;;;;2.30;1.90;;;12.10;24.00;;;;;;6342865;28;20189;-58
2022/01/11 14:58:02;;;;;;;2.77;2.00;;;11.20;24.90;;;;;;6323875;28;20250;-58
2022/01/11 15:01:07;;;;;;;3.30;2.30;;;10.50;25.80;;;;;;6306537;28;20223;-58
2022/01/11 15:04:10;;;;;;;3.07;2.50;;;9.80;26.40;;;;;;6309236;28;20215;-58
2022/01/11 15:07:16;;;;;;;2.70;2.00;;;9.10;27.30;;;;;;6349012;28;20234;-57
2022/01/11 15:10:29;;;;;;;1.97;1.73;;;8.30;28.40;;;;;;6349118;28;20177;-58
2022/01/11 15:13:38;;;;;;;2.67;1.47;;;7.70;29.60;;;;;;6324974;28;20184;-58
2022/01/11 15:16:41;;;;;;;1.90;1.50;;;7.00;29.80;;;;;;6349319;27;20188;-58
2022/01/11 15:19:42;;;;;;;4.63;2.50;;;6.60;30.90;;;;;;6308414;28;20190;-58
2022/01/11 15:22:43;;;;;;;3.23;2.50;;;6.10;31.90;;;;;;6326613;28;20194;-59
2022/01/11 15:25:44;;;;;;;2.80;1.80;;;5.80;32.80;;;;;;6285181;28;20199;-58
2022/01/11 15:28:45;;;;;;;2.50;1.87;;;5.60;32.70;;;;;;6327571;28;20277;-58
2022/01/11 15:31:48;;;;;;;1.90;1.70;;;5.40;33.10;;;;;;6316912;28;20278;-58
2022/01/11 15:34:49;;;;;;;1.93;1.40;;;5.20;33.30;;;;;;6340758;28;20200;-58
2022/01/11 15:37:51;;;;;;;2.63;1.70;;;5.00;33.90;;;;;;6338635;28;20257;-58
2022/01/11 15:40:59;;;;;;;2.23;1.70;;;5.00;33.90;;;;;;6334347;28;20669;-58
2022/01/11 15:44:02;;;;;;;1.90;1.30;;;4.80;34.30;;;;;;6320910;28;20287;-58
2022/01/11 15:47:03;;;;;;;2.47;1.50;;;4.60;34.70;;;;;;6338863;28;20222;-58
2022/01/11 15:50:04;;;;;;;2.00;1.50;;;4.40;35.30;;;;;;6346775;28;20190;-58
2022/01/11 15:53:05;;;;;;;3.03;1.50;;;4.30;35.60;;;;;;6311151;28;20211;-58
2022/01/11 15:56:06;;;;;;;2.10;1.50;;;4.20;35.50;;;;;;6300145;28;20209;-58
2022/01/11 15:59:08;;;;;;;1.70;1.57;;;4.10;36.00;;;;;;6327079;28;20198;-58
2022/01/11 16:02:08;;;;;;;2.33;1.70;;;4.00;36.30;;;;;;6332616;28;20200;-59
2022/01/11 16:05:09;;;;;;;3.13;1.90;;;3.90;36.40;;;;;;6342664;28;20200;-59
2022/01/11 16:08:12;;;;;;;2.83;1.93;;;3.80;37.10;;;;;;6293811;28;20238;-58
2022/01/11 16:11:12;;;;;;;3.07;1.40;;;3.80;37.40;;;;;;6311205;28;20197;-59
2022/01/11 16:14:14;;;;;;;1.70;1.50;;;3.60;37.30;;;;;;6310960;28;20233;-59
2022/01/11 16:17:15;;;;;;;2.10;1.50;;;3.50;38.00;;;;;;6311178;28;20199;-59